Time;durP1;ratioP1;P1;durP2;ratioP2;P2;SDS_P1;SDS_P2;PMS_P1;PMS_P2;Temp;Humidity;BMP_temperature;BMP_pressure;BME280_temperature;BME280_humidity;BME280_pressure;Samples;Min_cycle;Max_cycle;Signal;HPM_P1;HPM_P2
2021/08/27 00:02:00;;;;;;;11.90;10.05;;;;;;;;;;5093651;28;20535;-77
2021/08/27 00:04:27;;;;;;;9.00;7.88;;;;;;;;;;5093823;28;20050;-77
2021/08/27 00:06:53;;;;;;;9.35;8.45;;;;;;;;;;5093885;28;20020;-77
2021/08/27 00:09:19;;;;;;;9.30;8.25;;;;;;;;;;5093525;28;20066;-77
2021/08/27 00:11:45;;;;;;;9.38;8.40;;;;;;;;;;5093872;28;20024;-76
2021/08/27 00:14:11;;;;;;;9.32;8.43;;;;;;;;;;5093679;28;20028;-76
2021/08/27 00:16:37;;;;;;;11.05;9.52;;;;;;;;;;5093446;28;20035;-76
2021/08/27 00:19:03;;;;;;;11.82;8.55;;;;;;;;;;5093541;28;20028;-76
2021/08/27 00:21:29;;;;;;;8.93;8.02;;;;;;;;;;5093351;28;20479;-76
2021/08/27 00:23:55;;;;;;;12.73;8.10;;;;;;;;;;5093580;28;20055;-77
2021/08/27 00:26:21;;;;;;;8.52;7.65;;;;;;;;;;5093692;28;20108;-77
2021/08/27 00:28:47;;;;;;;9.70;8.65;;;;;;;;;;5093474;28;20027;-77
2021/08/27 00:31:13;;;;;;;10.73;7.78;;;;;;;;;;5093443;28;20035;-79
2021/08/27 00:33:39;;;;;;;11.85;8.43;;;;;;;;;;5096398;28;20063;-77
2021/08/27 00:36:05;;;;;;;7.97;7.18;;;;;;;;;;5097618;28;20363;-77
2021/08/27 00:38:31;;;;;;;11.52;8.13;;;;;;;;;;5097859;28;20431;-77
2021/08/27 00:40:57;;;;;;;12.43;8.05;;;;;;;;;;5097835;28;20042;-77
2021/08/27 00:43:23;;;;;;;8.75;7.95;;;;;;;;;;5096952;28;20114;-77
2021/08/27 00:45:49;;;;;;;8.82;6.47;;;;;;;;;;5097680;28;20020;-78
2021/08/27 00:48:15;;;;;;;8.40;7.53;;;;;;;;;;5096979;28;20027;-77
2021/08/27 00:50:42;;;;;;;8.38;7.38;;;;;;;;;;5097356;28;20354;-77
2021/08/27 00:53:08;;;;;;;8.05;7.25;;;;;;;;;;5097480;28;20036;-76
2021/08/27 00:55:35;;;;;;;7.65;6.82;;;;;;;;;;5096865;28;20111;-78
2021/08/27 00:58:01;;;;;;;10.80;6.85;;;;;;;;;;5097360;28;20453;-77
2021/08/27 01:00:27;;;;;;;8.35;7.53;;;;;;;;;;5097241;28;20369;-76
2021/08/27 01:02:53;;;;;;;9.18;6.43;;;;;;;;;;5096785;28;20043;-76
2021/08/27 01:05:19;;;;;;;7.97;7.07;;;;;;;;;;5096911;28;20115;-76
2021/08/27 01:08:04;;;;;;;10.18;7.32;;;;;;;;;;5097509;28;20020;-75
2021/08/27 01:10:31;;;;;;;7.72;6.88;;;;;;;;;;5096944;28;20031;-76
2021/08/27 01:13:10;;;;;;;7.72;6.95;;;;;;;;;;5096988;28;20028;-76
2021/08/27 01:15:43;;;;;;;6.47;5.90;;;;;;;;;;5097072;28;20034;-76
2021/08/27 01:18:11;;;;;;;7.65;6.85;;;;;;;;;;5097322;28;20085;-76
2021/08/27 01:20:45;;;;;;;7.40;6.68;;;;;;;;;;5097234;28;20028;-76
2021/08/27 01:23:14;;;;;;;7.28;6.57;;;;;;;;;;5096956;28;20059;-76
2021/08/27 01:25:42;;;;;;;8.10;6.22;;;;;;;;;;5096414;28;20465;-76
2021/08/27 01:28:08;;;;;;;8.38;7.10;;;;;;;;;;5096685;28;20132;-76
2021/08/27 01:30:39;;;;;;;7.55;6.30;;;;;;;;;;5096863;28;20024;-76
2021/08/27 01:33:21;;;;;;;6.53;5.85;;;;;;;;;;5096871;28;20024;-76
2021/08/27 01:35:52;;;;;;;6.50;5.78;;;;;;;;;;5096551;28;20021;-76
2021/08/27 01:38:18;;;;;;;10.93;6.30;;;;;;;;;;5096407;28;20032;-77
2021/08/27 01:40:45;;;;;;;6.88;6.18;;;;;;;;;;5096810;28;20081;-76
2021/08/27 01:43:11;;;;;;;10.02;6.90;;;;;;;;;;5096023;28;20051;-76
2021/08/27 01:45:37;;;;;;;8.30;7.25;;;;;;;;;;5095166;28;20077;-76
2021/08/27 01:48:05;;;;;;;5.97;5.45;;;;;;;;;;5096283;28;20020;-76
2021/08/27 01:50:31;;;;;;;6.40;5.80;;;;;;;;;;5096217;28;20047;-76
2021/08/27 01:52:57;;;;;;;8.27;6.35;;;;;;;;;;5096112;28;20030;-76
2021/08/27 01:55:23;;;;;;;6.28;5.68;;;;;;;;;;5095841;28;20477;-76
2021/08/27 01:57:49;;;;;;;6.82;6.13;;;;;;;;;;5095731;28;20052;-75
2021/08/27 02:00:15;;;;;;;6.93;6.22;;;;;;;;;;5096435;28;20069;-76
2021/08/27 02:02:41;;;;;;;6.53;5.93;;;;;;;;;;5095753;28;20071;-76
2021/08/27 02:05:08;;;;;;;5.30;4.80;;;;;;;;;;5095847;28;20113;-76
2021/08/27 02:07:34;;;;;;;6.03;5.53;;;;;;;;;;5095397;28;20427;-76
2021/08/27 02:10:00;;;;;;;7.93;5.72;;;;;;;;;;5096319;28;20350;-76
2021/08/27 02:12:26;;;;;;;5.50;5.00;;;;;;;;;;5095713;28;20028;-76
2021/08/27 02:14:53;;;;;;;11.23;5.97;;;;;;;;;;5095820;28;20024;-75
2021/08/27 02:17:19;;;;;;;8.63;5.82;;;;;;;;;;5095671;28;20369;-76
2021/08/27 02:19:45;;;;;;;6.35;5.50;;;;;;;;;;5095729;28;20107;-76
2021/08/27 02:22:11;;;;;;;6.07;5.15;;;;;;;;;;5095200;28;20055;-76
2021/08/27 02:24:42;;;;;;;5.93;5.35;;;;;;;;;;5095586;28;20016;-76
2021/08/27 02:27:08;;;;;;;6.50;5.90;;;;;;;;;;5095561;28;20020;-76
2021/08/27 02:29:34;;;;;;;6.53;5.85;;;;;;;;;;5095252;28;20028;-76
2021/08/27 02:32:01;;;;;;;6.88;4.97;;;;;;;;;;5095207;28;20477;-76
2021/08/27 02:34:27;;;;;;;5.70;5.10;;;;;;;;;;5095585;28;20020;-76
2021/08/27 02:36:54;;;;;;;6.68;6.03;;;;;;;;;;5095048;28;20095;-76
2021/08/27 02:39:20;;;;;;;6.10;5.55;;;;;;;;;;5095187;28;20498;-76
2021/08/27 02:41:46;;;;;;;5.30;4.85;;;;;;;;;;5094928;28;20028;-76
2021/08/27 02:44:12;;;;;;;5.50;4.85;;;;;;;;;;5095603;28;20028;-76
2021/08/27 02:46:38;;;;;;;7.82;5.22;;;;;;;;;;5094948;28;20031;-76
2021/08/27 02:49:04;;;;;;;7.70;4.35;;;;;;;;;;5094853;28;20016;-76
2021/08/27 02:51:34;;;;;;;5.03;4.38;;;;;;;;;;5094369;28;20030;-76
2021/08/27 02:54:00;;;;;;;5.10;4.70;;;;;;;;;;5095553;28;20047;-76
2021/08/27 02:56:26;;;;;;;5.60;5.10;;;;;;;;;;5094899;28;20088;-76
2021/08/27 02:58:53;;;;;;;6.25;4.70;;;;;;;;;;5094730;28;20020;-76
2021/08/27 03:01:24;;;;;;;5.30;4.80;;;;;;;;;;5094840;28;20032;-77
2021/08/27 03:03:54;;;;;;;4.63;4.22;;;;;;;;;;5094847;28;20059;-77
2021/08/27 03:06:21;;;;;;;7.00;4.82;;;;;;;;;;5094730;28;20035;-76
2021/08/27 03:08:49;;;;;;;5.38;4.80;;;;;;;;;;5095103;28;20024;-76
2021/08/27 03:11:16;;;;;;;5.22;4.63;;;;;;;;;;5094630;28;20024;-76
2021/08/27 03:13:45;;;;;;;4.88;4.47;;;;;;;;;;5094917;28;20027;-76
2021/08/27 03:16:12;;;;;;;4.65;4.25;;;;;;;;;;5094701;28;20028;-76
2021/08/27 03:18:41;;;;;;;5.07;4.68;;;;;;;;;;5094399;28;20024;-76
2021/08/27 03:21:10;;;;;;;4.20;3.83;;;;;;;;;;5094404;28;20442;-76
2021/08/27 03:23:36;;;;;;;4.93;3.83;;;;;;;;;;5094142;28;20093;-76
2021/08/27 03:26:02;;;;;;;4.93;4.47;;;;;;;;;;5094274;28;20525;-76
2021/08/27 03:28:28;;;;;;;5.05;4.22;;;;;;;;;;5094049;28;20461;-76
2021/08/27 03:30:55;;;;;;;4.22;3.92;;;;;;;;;;5094279;28;20031;-76
2021/08/27 03:33:21;;;;;;;4.45;4.05;;;;;;;;;;5093693;28;20481;-77
2021/08/27 03:35:49;;;;;;;4.05;3.75;;;;;;;;;;5094361;28;20035;-76
2021/08/27 03:38:15;;;;;;;5.22;4.00;;;;;;;;;;5094715;28;20024;-76
2021/08/27 03:40:41;;;;;;;7.35;4.13;;;;;;;;;;5094147;28;20032;-75
2021/08/27 03:43:07;;;;;;;5.85;4.25;;;;;;;;;;5093698;28;20516;-76
2021/08/27 03:45:33;;;;;;;6.05;5.45;;;;;;;;;;5093942;28;20024;-76
2021/08/27 03:48:00;;;;;;;5.63;4.00;;;;;;;;;;5093561;28;20046;-76
2021/08/27 03:50:26;;;;;;;4.63;4.22;;;;;;;;;;5093936;28;20035;-76
2021/08/27 03:52:52;;;;;;;4.88;4.43;;;;;;;;;;5094054;28;20024;-76
2021/08/27 03:55:19;;;;;;;6.28;4.53;;;;;;;;;;5093431;28;20024;-76
2021/08/27 03:57:46;;;;;;;4.65;4.25;;;;;;;;;;5094281;28;20127;-75
2021/08/27 04:00:12;;;;;;;4.88;4.00;;;;;;;;;;5094003;28;20409;-76
2021/08/27 04:02:39;;;;;;;4.35;4.05;;;;;;;;;;5093307;28;20568;-76
2021/08/27 04:05:09;;;;;;;7.88;3.38;;;;;;;;;;5093840;28;20090;-76
2021/08/27 04:07:35;;;;;;;4.80;4.32;;;;;;;;;;5092608;28;20350;-76
2021/08/27 04:10:01;;;;;;;4.68;4.22;;;;;;;;;;5093491;28;20031;-76
2021/08/27 04:12:27;;;;;;;4.82;4.43;;;;;;;;;;5093507;28;20085;-76
2021/08/27 04:14:53;;;;;;;4.22;3.83;;;;;;;;;;5093470;28;20027;-76
2021/08/27 04:17:19;;;;;;;4.63;4.20;;;;;;;;;;5093229;28;20020;-76
2021/08/27 04:19:45;;;;;;;3.67;3.33;;;;;;;;;;5094164;28;20052;-76
2021/08/27 04:22:11;;;;;;;4.82;3.95;;;;;;;;;;5093462;28;20040;-75
2021/08/27 04:24:37;;;;;;;4.32;3.92;;;;;;;;;;5093780;28;20099;-76
2021/08/27 04:27:03;;;;;;;4.50;4.10;;;;;;;;;;5093469;28;20094;-75
2021/08/27 04:29:29;;;;;;;5.28;4.00;;;;;;;;;;5093118;28;20408;-76
2021/08/27 04:31:57;;;;;;;6.18;3.50;;;;;;;;;;5093013;28;20099;-75
2021/08/27 04:34:23;;;;;;;4.10;3.75;;;;;;;;;;5093868;28;20056;-76
2021/08/27 04:36:49;;;;;;;4.35;3.95;;;;;;;;;;5093446;28;20048;-76
2021/08/27 04:39:15;;;;;;;7.18;4.90;;;;;;;;;;5093360;28;20020;-76
2021/08/27 04:41:41;;;;;;;4.45;3.97;;;;;;;;;;5093359;28;20027;-76
2021/08/27 04:44:07;;;;;;;4.18;3.78;;;;;;;;;;5093440;28;20043;-76
2021/08/27 04:46:33;;;;;;;3.95;3.42;;;;;;;;;;5092931;28;20024;-76
2021/08/27 04:48:59;;;;;;;4.15;3.78;;;;;;;;;;5093315;28;20028;-76
2021/08/27 04:51:25;;;;;;;4.30;3.90;;;;;;;;;;5093163;28;20036;-76
2021/08/27 04:53:51;;;;;;;4.60;3.88;;;;;;;;;;5093889;28;20024;-76
2021/08/27 04:56:18;;;;;;;4.25;3.85;;;;;;;;;;5093172;28;20477;-76
2021/08/27 04:58:44;;;;;;;4.45;4.15;;;;;;;;;;5093181;28;20028;-76
2021/08/27 05:01:10;;;;;;;4.47;4.07;;;;;;;;;;5092789;28;20024;-76
2021/08/27 05:03:36;;;;;;;4.20;3.67;;;;;;;;;;5088678;28;20119;-77
2021/08/27 05:06:02;;;;;;;4.93;4.43;;;;;;;;;;5088316;28;20066;-81
2021/08/27 05:08:28;;;;;;;4.57;3.88;;;;;;;;;;5093391;28;20024;-80
2021/08/27 05:10:54;;;;;;;4.32;3.92;;;;;;;;;;5093405;28;20020;-79
2021/08/27 05:13:21;;;;;;;4.30;3.67;;;;;;;;;;5094118;28;20086;-78
2021/08/27 05:15:47;;;;;;;4.75;4.22;;;;;;;;;;5094634;28;20031;-80
2021/08/27 05:18:13;;;;;;;5.50;4.25;;;;;;;;;;5093161;28;20028;-78
2021/08/27 05:20:39;;;;;;;4.00;3.70;;;;;;;;;;5097691;28;20028;-78
2021/08/27 05:23:05;;;;;;;4.68;3.85;;;;;;;;;;5097360;28;20043;-77
2021/08/27 05:25:31;;;;;;;4.15;3.78;;;;;;;;;;5097311;28;20466;-77
2021/08/27 05:27:57;;;;;;;4.35;3.53;;;;;;;;;;5095945;28;20024;-80
2021/08/27 05:30:23;;;;;;;4.65;4.18;;;;;;;;;;5097446;28;20024;-78
2021/08/27 05:32:49;;;;;;;6.43;3.58;;;;;;;;;;5097516;28;20024;-80
2021/08/27 05:35:15;;;;;;;3.88;3.47;;;;;;;;;;5097827;28;20028;-81
2021/08/27 05:37:42;;;;;;;9.48;4.10;;;;;;;;;;5095045;28;20028;-77
2021/08/27 05:40:08;;;;;;;5.47;4.20;;;;;;;;;;5096555;28;20047;-85
2021/08/27 05:42:35;;;;;;;4.10;3.70;;;;;;;;;;5097202;28;20381;-77
2021/08/27 05:45:01;;;;;;;5.30;4.70;;;;;;;;;;5097768;28;20026;-79
2021/08/27 05:47:30;;;;;;;5.00;4.47;;;;;;;;;;5095921;28;20024;-84
2021/08/27 05:49:56;;;;;;;4.88;3.10;;;;;;;;;;5096813;28;20062;-79
2021/08/27 05:52:22;;;;;;;6.60;3.83;;;;;;;;;;5097473;28;20050;-80
2021/08/27 05:54:48;;;;;;;4.38;4.05;;;;;;;;;;5097484;28;20520;-82
2021/08/27 05:57:14;;;;;;;4.35;3.80;;;;;;;;;;5094780;28;20056;-80
2021/08/27 05:59:40;;;;;;;5.63;3.50;;;;;;;;;;5096016;28;20024;-82
2021/08/27 06:02:06;;;;;;;3.90;3.60;;;;;;;;;;5097149;28;20023;-79
2021/08/27 06:04:37;;;;;;;7.32;3.15;;;;;;;;;;5099524;28;20032;-79
2021/08/27 06:07:06;;;;;;;6.78;4.15;;;;;;;;;;5085391;28;20039;-80
2021/08/27 06:09:32;;;;;;;4.63;3.95;;;;;;;;;;5073251;28;20025;-76
2021/08/27 06:11:59;;;;;;;12.73;3.92;;;;;;;;;;5070654;28;20103;-75
2021/08/27 06:14:26;;;;;;;6.05;3.72;;;;;;;;;;5075669;28;20826;-75
2021/08/27 06:16:52;;;;;;;4.60;3.83;;;;;;;;;;5075754;28;20036;-77
2021/08/27 06:19:18;;;;;;;5.53;3.88;;;;;;;;;;5079106;28;20026;-74
2021/08/27 06:21:44;;;;;;;9.98;3.47;;;;;;;;;;5096552;28;20028;-77
2021/08/27 06:24:10;;;;;;;4.90;3.80;;;;;;;;;;5095981;28;20051;-76
2021/08/27 06:26:36;;;;;;;6.15;3.38;;;;;;;;;;5095647;28;20024;-75
2021/08/27 06:29:03;;;;;;;4.30;3.17;;;;;;;;;;5091334;28;20083;-75
2021/08/27 06:31:29;;;;;;;4.00;3.60;;;;;;;;;;5074728;28;20020;-75
2021/08/27 06:33:55;;;;;;;4.70;3.20;;;;;;;;;;5075907;28;20024;-76
2021/08/27 06:36:21;;;;;;;7.47;3.47;;;;;;;;;;5075395;28;20188;-74
2021/08/27 06:38:47;;;;;;;5.00;2.95;;;;;;;;;;5074349;28;20021;-74
2021/08/27 06:41:13;;;;;;;3.95;3.55;;;;;;;;;;5075351;28;20024;-75
2021/08/27 06:43:44;;;;;;;3.40;2.72;;;;;;;;;;5074528;28;20040;-82
2021/08/27 06:46:11;;;;;;;3.28;2.83;;;;;;;;;;5075189;28;20037;-73
2021/08/27 06:48:37;;;;;;;6.65;2.70;;;;;;;;;;5074975;28;20347;-74
2021/08/27 06:51:03;;;;;;;7.45;4.15;;;;;;;;;;5073411;28;20078;-78
2021/08/27 06:53:29;;;;;;;7.28;3.35;;;;;;;;;;5074732;28;20036;-79
2021/08/27 06:55:55;;;;;;;13.63;3.28;;;;;;;;;;5078288;28;20086;-79
2021/08/27 06:58:21;;;;;;;3.58;3.20;;;;;;;;;;5095040;28;20024;-79
2021/08/27 07:00:47;;;;;;;2.97;2.67;;;;;;;;;;5094882;28;20020;-79
2021/08/27 07:03:13;;;;;;;3.70;2.83;;;;;;;;;;5094895;28;20036;-79
2021/08/27 07:05:40;;;;;;;4.72;3.42;;;;;;;;;;5094353;28;20480;-77
2021/08/27 07:08:06;;;;;;;9.35;3.97;;;;;;;;;;5094615;28;20039;-78
2021/08/27 07:10:32;;;;;;;5.78;4.07;;;;;;;;;;5094373;28;20103;-78
2021/08/27 07:12:58;;;;;;;7.13;3.38;;;;;;;;;;5094289;28;20511;-78
2021/08/27 07:15:24;;;;;;;5.05;3.25;;;;;;;;;;5094205;28;20024;-78
2021/08/27 07:17:50;;;;;;;4.88;3.28;;;;;;;;;;5094428;28;20030;-78
2021/08/27 07:20:17;;;;;;;5.07;3.15;;;;;;;;;;5094701;28;20031;-79
2021/08/27 07:22:43;;;;;;;6.60;3.80;;;;;;;;;;5094249;28;20035;-79
2021/08/27 07:25:09;;;;;;;4.70;3.15;;;;;;;;;;5094351;28;20070;-79
2021/08/27 07:27:35;;;;;;;4.43;3.20;;;;;;;;;;5094162;28;20039;-77
2021/08/27 07:30:01;;;;;;;3.90;3.10;;;;;;;;;;5094291;28;20020;-77
2021/08/27 07:32:27;;;;;;;7.50;3.50;;;;;;;;;;5094150;28;20069;-78
2021/08/27 07:34:53;;;;;;;12.50;3.40;;;;;;;;;;5094512;28;20458;-78
2021/08/27 07:37:19;;;;;;;4.38;3.25;;;;;;;;;;5093885;28;20419;-78
2021/08/27 07:39:45;;;;;;;20.08;4.30;;;;;;;;;;5090584;28;20047;-74
2021/08/27 07:42:11;;;;;;;11.88;4.03;;;;;;;;;;5093901;28;20030;-76
2021/08/27 07:44:37;;;;;;;18.38;3.67;;;;;;;;;;5094739;28;20056;-74
2021/08/27 07:47:04;;;;;;;15.57;4.25;;;;;;;;;;5094929;28;20020;-73
2021/08/27 07:49:30;;;;;;;16.42;4.30;;;;;;;;;;5094834;28;20031;-74
2021/08/27 07:51:57;;;;;;;8.32;3.67;;;;;;;;;;5094333;28;20056;-75
2021/08/27 07:54:24;;;;;;;6.97;3.55;;;;;;;;;;5094353;28;20059;-78
2021/08/27 07:56:50;;;;;;;27.02;4.03;;;;;;;;;;5083108;28;20049;-77
2021/08/27 07:59:16;;;;;;;14.55;3.78;;;;;;;;;;5072246;28;20024;-75
2021/08/27 08:01:42;;;;;;;6.53;4.43;;;;;;;;;;5073649;28;20493;-72
2021/08/27 08:04:08;;;;;;;18.75;4.88;;;;;;;;;;5074025;28;20037;-78
2021/08/27 08:06:35;;;;;;;18.90;4.10;;;;;;;;;;5073951;28;20044;-80
2021/08/27 08:09:02;;;;;;;8.68;5.30;;;;;;;;;;5074110;28;20039;-80
2021/08/27 08:11:28;;;;;;;12.85;5.30;;;;;;;;;;5074055;28;20366;-81
2021/08/27 08:13:54;;;;;;;23.42;4.68;;;;;;;;;;5074723;28;20024;-79
2021/08/27 08:16:20;;;;;;;21.30;5.47;;;;;;;;;;5074135;28;20036;-80
2021/08/27 08:18:46;;;;;;;17.88;5.80;;;;;;;;;;5073690;28;20025;-79
2021/08/27 08:21:13;;;;;;;19.85;4.78;;;;;;;;;;5074111;28;20032;-78
2021/08/27 08:23:39;;;;;;;15.25;5.13;;;;;;;;;;5073336;28;20474;-78
2021/08/27 08:26:05;;;;;;;24.15;4.97;;;;;;;;;;5073531;28;20016;-80
2021/08/27 08:28:31;;;;;;;13.10;4.75;;;;;;;;;;5073851;28;20055;-79
2021/08/27 08:30:57;;;;;;;19.02;6.32;;;;;;;;;;5073433;28;20025;-81
2021/08/27 08:33:23;;;;;;;23.70;6.82;;;;;;;;;;5073693;28;20485;-78
2021/08/27 08:35:49;;;;;;;31.48;7.10;;;;;;;;;;5073445;28;20082;-79
2021/08/27 08:38:17;;;;;;;21.80;7.20;;;;;;;;;;5073084;28;20028;-79
2021/08/27 08:40:43;;;;;;;10.40;5.85;;;;;;;;;;5072642;28;20355;-79
2021/08/27 08:43:10;;;;;;;12.70;6.93;;;;;;;;;;5072736;28;20048;-79
2021/08/27 08:45:36;;;;;;;13.15;6.70;;;;;;;;;;5073029;28;20033;-80
2021/08/27 08:48:02;;;;;;;8.40;5.72;;;;;;;;;;5073835;28;20082;-80
2021/08/27 08:50:28;;;;;;;10.30;5.78;;;;;;;;;;5073359;28;20028;-80
2021/08/27 08:52:54;;;;;;;16.73;5.90;;;;;;;;;;5073679;28;20035;-80
2021/08/27 08:55:21;;;;;;;9.25;5.53;;;;;;;;;;5077040;28;20028;-80
2021/08/27 08:57:47;;;;;;;13.98;5.18;;;;;;;;;;5096678;28;20055;-80
2021/08/27 09:00:13;;;;;;;5.78;5.15;;;;;;;;;;5097688;28;20062;-81
2021/08/27 09:02:39;;;;;;;8.07;5.32;;;;;;;;;;5097394;28;20411;-79
2021/08/27 09:05:05;;;;;;;11.50;5.75;;;;;;;;;;5097485;28;20419;-79
2021/08/27 09:07:31;;;;;;;10.02;5.70;;;;;;;;;;5097360;28;20431;-79
2021/08/27 09:09:58;;;;;;;15.25;4.70;;;;;;;;;;5097155;28;20423;-80
2021/08/27 09:12:25;;;;;;;8.02;4.55;;;;;;;;;;5097833;28;20038;-79
2021/08/27 09:15:11;;;;;;;9.77;5.32;;;;;;;;;;5097185;28;20384;-79
2021/08/27 09:17:39;;;;;;;8.90;6.07;;;;;;;;;;5082003;28;20383;-79
2021/08/27 09:20:06;;;;;;;11.88;5.13;;;;;;;;;;5097194;28;20386;-79
2021/08/27 09:22:49;;;;;;;15.25;5.40;;;;;;;;;;5096518;28;20040;-78
2021/08/27 09:25:16;;;;;;;9.90;5.45;;;;;;;;;;5097381;28;20031;-79
2021/08/27 09:28:01;;;;;;;9.45;5.88;;;;;;;;;;5097308;28;20103;-79
2021/08/27 09:30:28;;;;;;;8.63;6.63;;;;;;;;;;5082368;28;20043;-80
2021/08/27 09:32:54;;;;;;;13.50;7.05;;;;;;;;;;5097244;28;20077;-79
2021/08/27 09:35:22;;;;;;;12.00;6.35;;;;;;;;;;5096882;28;20073;-78
2021/08/27 09:37:49;;;;;;;7.95;6.45;;;;;;;;;;5097203;28;20020;-79
2021/08/27 09:40:16;;;;;;;12.38;8.30;;;;;;;;;;5098512;28;20020;-80
2021/08/27 09:42:43;;;;;;;18.65;7.22;;;;;;;;;;5096908;28;20334;-79
2021/08/27 09:45:10;;;;;;;12.13;7.20;;;;;;;;;;5097149;28;20032;-79
2021/08/27 09:47:36;;;;;;;16.30;7.57;;;;;;;;;;5096539;28;20027;-79
2021/08/27 09:50:22;;;;;;;8.90;7.35;;;;;;;;;;5096501;28;20024;-78
2021/08/27 09:52:51;;;;;;;12.98;7.68;;;;;;;;;;5082085;28;20346;-79
2021/08/27 09:55:17;;;;;;;9.10;7.28;;;;;;;;;;5095920;28;20024;-78
2021/08/27 09:57:45;;;;;;;13.90;8.35;;;;;;;;;;5096377;28;20063;-78
2021/08/27 10:00:26;;;;;;;10.52;7.30;;;;;;;;;;5095710;28;20031;-78
2021/08/27 10:02:52;;;;;;;11.60;9.20;;;;;;;;;;5096157;28;20039;-78
2021/08/27 10:05:18;;;;;;;7.82;7.10;;;;;;;;;;5094634;28;20032;-79
2021/08/27 10:07:45;;;;;;;7.40;6.65;;;;;;;;;;5095772;28;20024;-79
2021/08/27 10:10:12;;;;;;;8.10;6.05;;;;;;;;;;5094344;28;20369;-76
2021/08/27 10:12:39;;;;;;;8.68;6.45;;;;;;;;;;5095437;28;20492;-78
2021/08/27 10:15:06;;;;;;;10.00;6.82;;;;;;;;;;5096080;28;20027;-78
2021/08/27 10:17:32;;;;;;;7.75;6.53;;;;;;;;;;5095388;28;20031;-78
2021/08/27 10:19:58;;;;;;;13.93;6.25;;;;;;;;;;5095175;28;20031;-78
2021/08/27 10:22:24;;;;;;;7.60;6.30;;;;;;;;;;5095580;28;20038;-78
2021/08/27 10:24:50;;;;;;;12.05;7.85;;;;;;;;;;5095134;28;20046;-78
2021/08/27 10:27:16;;;;;;;7.78;6.10;;;;;;;;;;5095286;28;20020;-78
2021/08/27 10:29:50;;;;;;;9.35;5.88;;;;;;;;;;5095404;28;20479;-78
2021/08/27 10:32:36;;;;;;;14.20;6.60;;;;;;;;;;5095519;28;20031;-78
2021/08/27 10:35:02;;;;;;;7.90;5.97;;;;;;;;;;5080239;28;20107;-78
2021/08/27 10:37:49;;;;;;;10.05;6.82;;;;;;;;;;5095040;28;20049;-78
2021/08/27 10:40:35;;;;;;;11.32;5.95;;;;;;;;;;5078849;28;20101;-77
2021/08/27 10:43:02;;;;;;;7.30;5.30;;;;;;;;;;5076786;28;20055;-76
2021/08/27 10:45:51;;;;;;;6.78;6.00;;;;;;;;;;5094850;28;20020;-77
2021/08/27 10:48:18;;;;;;;16.25;6.88;;;;;;;;;;5079882;28;20031;-76
2021/08/27 10:50:52;;;;;;;9.13;5.72;;;;;;;;;;5095461;28;20496;-74
2021/08/27 10:53:30;;;;;;;8.90;6.18;;;;;;;;;;5095169;28;20024;-76
2021/08/27 10:55:56;;;;;;;8.38;6.05;;;;;;;;;;5095167;28;20547;-76
2021/08/27 10:58:26;;;;;;;9.38;5.90;;;;;;;;;;5092598;28;20032;-79
2021/08/27 11:00:52;;;;;;;10.65;5.72;;;;;;;;;;5094503;28;20032;-77
2021/08/27 11:03:18;;;;;;;8.52;5.95;;;;;;;;;;5094578;28;20071;-74
2021/08/27 11:05:45;;;;;;;10.55;5.32;;;;;;;;;;5094956;28;20020;-73
2021/08/27 11:08:13;;;;;;;11.27;6.90;;;;;;;;;;5094542;28;20059;-75
2021/08/27 11:10:42;;;;;;;11.05;5.78;;;;;;;;;;5094350;28;20030;-74
2021/08/27 11:13:10;;;;;;;14.18;5.93;;;;;;;;;;5094326;28;20481;-72
2021/08/27 11:15:36;;;;;;;17.42;6.25;;;;;;;;;;5093922;28;20473;-74
2021/08/27 11:18:21;;;;;;;10.48;6.22;;;;;;;;;;5094054;28;20424;-74
2021/08/27 11:20:47;;;;;;;9.45;6.72;;;;;;;;;;5094503;28;20100;-76
2021/08/27 11:23:14;;;;;;;16.63;7.63;;;;;;;;;;5094578;28;20424;-76
2021/08/27 11:25:41;;;;;;;16.35;5.97;;;;;;;;;;5093558;28;20056;-75
2021/08/27 11:28:09;;;;;;;7.57;6.32;;;;;;;;;;5094259;28;20028;-75
2021/08/27 11:30:36;;;;;;;7.68;5.45;;;;;;;;;;5094257;28;20024;-73
2021/08/27 11:33:02;;;;;;;8.00;5.65;;;;;;;;;;5094135;28;20067;-75
2021/08/27 11:35:28;;;;;;;8.75;6.78;;;;;;;;;;5093759;28;20027;-75
2021/08/27 11:37:55;;;;;;;13.48;7.22;;;;;;;;;;5094031;28;20028;-75
2021/08/27 11:40:21;;;;;;;7.55;6.20;;;;;;;;;;5093818;28;20028;-75
2021/08/27 11:42:47;;;;;;;7.57;6.60;;;;;;;;;;5094087;28;20039;-74
2021/08/27 11:45:17;;;;;;;12.27;6.10;;;;;;;;;;5093844;28;20081;-73
2021/08/27 11:47:51;;;;;;;13.18;6.80;;;;;;;;;;5093820;28;20354;-72
2021/08/27 11:50:26;;;;;;;6.95;5.72;;;;;;;;;;5093854;28;20441;-72
2021/08/27 11:52:55;;;;;;;8.02;5.65;;;;;;;;;;5093422;28;20028;-73
2021/08/27 11:55:21;;;;;;;6.88;6.22;;;;;;;;;;5093377;28;20026;-72
2021/08/27 11:57:50;;;;;;;5.97;5.40;;;;;;;;;;5093479;28;20048;-72
2021/08/27 12:00:16;;;;;;;8.70;5.72;;;;;;;;;;5093493;28;20043;-76
2021/08/27 12:02:42;;;;;;;6.15;5.65;;;;;;;;;;5093636;28;20042;-74
2021/08/27 12:05:10;;;;;;;6.88;6.10;;;;;;;;;;5093555;28;20051;-74
2021/08/27 12:07:40;;;;;;;10.25;6.70;;;;;;;;;;5092917;28;20485;-75
2021/08/27 12:10:08;;;;;;;10.27;6.20;;;;;;;;;;5093305;28;20028;-79
2021/08/27 12:12:36;;;;;;;8.07;6.68;;;;;;;;;;5093381;28;20132;-77
2021/08/27 12:15:03;;;;;;;7.13;5.75;;;;;;;;;;5093327;28;20028;-78
2021/08/27 12:17:29;;;;;;;8.30;5.90;;;;;;;;;;5093186;28;20028;-76
2021/08/27 12:19:56;;;;;;;9.32;6.22;;;;;;;;;;5093403;28;20028;-75
2021/08/27 12:22:23;;;;;;;10.10;6.32;;;;;;;;;;5093552;28;20028;-75
2021/08/27 12:24:50;;;;;;;9.88;6.60;;;;;;;;;;5093377;28;20105;-74
2021/08/27 12:27:16;;;;;;;9.23;6.30;;;;;;;;;;5093086;28;20026;-75
2021/08/27 12:29:43;;;;;;;7.22;6.63;;;;;;;;;;5092329;28;20373;-72
2021/08/27 12:32:24;;;;;;;8.52;6.45;;;;;;;;;;5093220;28;20043;-73
2021/08/27 12:34:50;;;;;;;7.40;6.65;;;;;;;;;;5092825;28;20049;-72
2021/08/27 12:37:16;;;;;;;6.70;5.97;;;;;;;;;;5093023;28;20031;-72
2021/08/27 12:39:42;;;;;;;9.38;6.43;;;;;;;;;;5093046;28;20051;-73
2021/08/27 12:42:13;;;;;;;10.40;6.60;;;;;;;;;;5093464;28;20028;-74
2021/08/27 12:44:55;;;;;;;8.70;6.30;;;;;;;;;;5093680;28;20081;-73
2021/08/27 12:47:28;;;;;;;5.78;5.18;;;;;;;;;;5092896;28;20122;-72
2021/08/27 12:49:57;;;;;;;6.47;5.88;;;;;;;;;;5093060;28;20043;-73
2021/08/27 12:52:24;;;;;;;7.07;6.30;;;;;;;;;;5092580;28;20466;-73
2021/08/27 12:54:50;;;;;;;8.63;6.78;;;;;;;;;;5093206;28;20377;-72
2021/08/27 12:57:16;;;;;;;8.40;6.25;;;;;;;;;;5092606;28;20056;-73
2021/08/27 12:59:54;;;;;;;12.70;6.47;;;;;;;;;;5092632;28;20111;-73
2021/08/27 13:02:21;;;;;;;11.95;7.13;;;;;;;;;;5092658;28;20066;-73
2021/08/27 13:04:47;;;;;;;11.70;7.07;;;;;;;;;;5093219;28;20028;-72
2021/08/27 13:07:23;;;;;;;10.52;6.03;;;;;;;;;;5092883;28;20117;-72
2021/08/27 13:09:49;;;;;;;7.70;6.43;;;;;;;;;;5093192;28;20095;-74
2021/08/27 13:12:15;;;;;;;6.63;5.88;;;;;;;;;;5092755;28;20028;-76
2021/08/27 13:14:41;;;;;;;9.73;5.93;;;;;;;;;;5093091;28;20097;-73
2021/08/27 13:17:09;;;;;;;9.18;6.32;;;;;;;;;;5092537;28;20047;-74
2021/08/27 13:19:56;;;;;;;8.50;6.32;;;;;;;;;;5092691;28;20107;-74
2021/08/27 13:22:23;;;;;;;10.50;6.43;;;;;;;;;;5077955;28;20025;-74
2021/08/27 13:24:57;;;;;;;6.70;5.97;;;;;;;;;;5092341;28;20024;-76
2021/08/27 13:27:23;;;;;;;6.78;6.18;;;;;;;;;;5092535;28;20028;-77
2021/08/27 13:29:49;;;;;;;8.35;5.47;;;;;;;;;;5092469;28;20027;-75
2021/08/27 13:32:19;;;;;;;4.65;4.10;;;;;;;;;;5092532;28;20453;-76
2021/08/27 13:34:45;;;;;;;13.57;5.50;;;;;;;;;;5092799;28;20025;-74
2021/08/27 13:37:11;;;;;;;11.23;5.28;;;;;;;;;;5087868;28;20021;-74
2021/08/27 13:39:37;;;;;;;5.90;5.25;;;;;;;;;;5093595;28;20047;-74
2021/08/27 13:42:03;;;;;;;9.45;4.38;;;;;;;;;;5094831;28;20027;-75
2021/08/27 13:44:29;;;;;;;7.40;4.22;;;;;;;;;;5095098;28;20031;-75
2021/08/27 13:46:55;;;;;;;5.40;4.90;;;;;;;;;;5095004;28;20024;-74
2021/08/27 13:49:21;;;;;;;5.45;4.53;;;;;;;;;;5095340;28;20028;-76
2021/08/27 13:51:48;;;;;;;9.93;3.75;;;;;;;;;;5095963;28;20039;-74
2021/08/27 13:54:14;;;;;;;7.13;4.72;;;;;;;;;;5094020;28;20118;-76
2021/08/27 13:56:40;;;;;;;10.82;4.53;;;;;;;;;;5094877;28;20048;-75
2021/08/27 13:59:06;;;;;;;6.60;4.22;;;;;;;;;;5096764;28;20038;-77
2021/08/27 14:01:32;;;;;;;9.25;4.20;;;;;;;;;;5107056;28;20035;-76
2021/08/27 14:03:58;;;;;;;4.45;4.05;;;;;;;;;;5107898;28;20039;-76
2021/08/27 14:06:24;;;;;;;5.22;4.05;;;;;;;;;;5096137;28;20056;-75
2021/08/27 14:08:50;;;;;;;7.15;4.38;;;;;;;;;;5095981;28;20061;-75
2021/08/27 14:11:17;;;;;;;9.25;4.18;;;;;;;;;;5095624;28;20027;-75
2021/08/27 14:13:43;;;;;;;6.50;4.53;;;;;;;;;;5094726;28;20067;-75
2021/08/27 14:16:09;;;;;;;5.07;4.35;;;;;;;;;;5094986;28;20072;-75
2021/08/27 14:18:36;;;;;;;5.28;4.50;;;;;;;;;;5094840;28;20031;-80
2021/08/27 14:21:03;;;;;;;29.00;5.15;;;;;;;;;;5094400;28;20024;-78
2021/08/27 14:23:29;;;;;;;11.90;5.20;;;;;;;;;;5093991;28;20032;-78
2021/08/27 14:25:55;;;;;;;9.82;4.97;;;;;;;;;;5095570;28;20035;-79
2021/08/27 14:28:21;;;;;;;6.00;4.45;;;;;;;;;;5095679;28;20028;-78
2021/08/27 14:30:48;;;;;;;7.00;3.95;;;;;;;;;;5095248;28;20023;-77
2021/08/27 14:33:14;;;;;;;27.05;5.22;;;;;;;;;;5095351;28;20115;-78
2021/08/27 14:35:41;;;;;;;20.63;6.65;;;;;;;;;;5094794;28;20377;-78
2021/08/27 14:38:07;;;;;;;7.15;4.53;;;;;;;;;;5095827;28;20035;-77
2021/08/27 14:40:33;;;;;;;10.73;5.25;;;;;;;;;;5095570;28;20477;-76
2021/08/27 14:42:59;;;;;;;12.30;4.97;;;;;;;;;;5095587;28;20032;-76